Time;durP1;ratioP1;P1;durP2;ratioP2;P2;SDS_P1;SDS_P2;PMS_P1;PMS_P2;Temp;Humidity;BMP_temperature;BMP_pressure;BME280_temperature;BME280_humidity;BME280_pressure;Samples;Min_cycle;Max_cycle;Signal;HPM_P1;HPM_P2
2023/12/07 00:00:33;;;;;;;35.97;18.25;;;;;;;0.76;nan;100456.13;5084468;28;20448;-74
2023/12/07 00:03:02;;;;;;;37.58;18.52;;;;;;;0.76;nan;100456.94;5089899;28;20051;-71
2023/12/07 00:05:27;;;;;;;28.80;14.17;;;;;;;0.81;nan;100472.84;5068102;28;20025;-73
2023/12/07 00:07:53;;;;;;;38.83;18.75;;;;;;;0.67;nan;100438.94;5086662;28;20063;-72
2023/12/07 00:10:18;;;;;;;39.53;18.92;;;;;;;0.70;nan;100447.22;5075746;28;20103;-75
2023/12/07 00:12:44;;;;;;;38.15;18.27;;;;;;;0.69;nan;100455.13;5089944;28;20429;-75
2023/12/07 00:15:10;;;;;;;41.40;20.25;;;;;;;0.77;nan;100466.34;5085517;28;20059;-75
2023/12/07 00:17:35;;;;;;;43.40;20.42;;;;;;;0.76;nan;100469.88;5070228;28;20028;-74
2023/12/07 00:20:00;;;;;;;42.08;20.33;;;;;;;0.72;nan;100457.41;5086018;28;20429;-74
2023/12/07 00:22:28;;;;;;;37.97;18.52;;;;;;;0.68;nan;100456.91;5090464;28;20032;-74
2023/12/07 00:24:53;;;;;;;42.97;20.52;;;;;;;0.75;nan;100476.06;5088696;28;20109;-74
2023/12/07 00:27:19;;;;;;;39.30;18.48;;;;;;;0.73;nan;100467.63;5088468;28;20106;-73
2023/12/07 00:29:44;;;;;;;44.35;20.65;;;;;;;0.78;nan;100475.72;5085005;28;21317;-75
2023/12/07 00:32:10;;;;;;;41.22;20.13;;;;;;;0.76;nan;100467.28;5083992;28;21261;-74
2023/12/07 00:34:35;;;;;;;41.45;19.65;;;;;;;0.71;nan;100472.16;5090181;28;20016;-75
2023/12/07 00:37:01;;;;;;;45.85;20.30;;;;;;;0.65;nan;100459.84;5094289;28;20023;-76
2023/12/07 00:39:26;;;;;;;43.70;20.38;;;;;;;0.70;nan;100475.72;5114660;28;20046;-74
2023/12/07 00:41:52;;;;;;;49.05;20.45;;;;;;;0.71;nan;100469.56;5098823;28;20028;-73
2023/12/07 00:44:18;;;;;;;48.67;20.95;;;;;;;0.78;nan;100482.69;5109977;28;20892;-73
2023/12/07 00:46:43;;;;;;;47.30;20.85;;;;;;;0.67;nan;100459.66;5097042;28;20680;-75
2023/12/07 00:49:09;;;;;;;49.97;21.95;;;;;;;0.75;nan;100470.06;5098132;28;20084;-75
2023/12/07 00:51:34;;;;;;;51.92;21.30;;;;;;;0.67;nan;100451.88;5080053;28;20056;-73
2023/12/07 00:54:00;;;;;;;50.50;22.48;;;;;;;0.80;nan;100481.56;5088879;28;20541;-74
2023/12/07 00:56:25;;;;;;;51.92;21.67;;;;;;;0.67;nan;100460.50;5091490;28;20032;-73
2023/12/07 00:58:50;;;;;;;50.92;22.60;;;;;;;0.76;nan;100476.84;5089806;28;20063;-74
2023/12/07 01:01:16;;;;;;;49.53;21.92;;;;;;;0.68;nan;100454.34;5089719;28;20042;-74
2023/12/07 01:03:41;;;;;;;51.20;22.45;;;;;;;0.73;nan;100474.59;5085220;28;20032;-74
2023/12/07 01:06:07;;;;;;;54.85;21.30;;;;;;;0.75;nan;100481.25;5081415;28;20012;-75
2023/12/07 01:08:33;;;;;;;53.38;22.67;;;;;;;0.76;nan;100476.84;5086457;28;20039;-75
2023/12/07 01:10:58;;;;;;;54.95;23.08;;;;;;;0.71;nan;100463.56;5087776;28;20029;-72
2023/12/07 01:13:24;;;;;;;55.28;23.20;;;;;;;0.73;nan;100466.81;5069957;28;20058;-73
2023/12/07 01:15:50;;;;;;;58.28;23.50;;;;;;;0.69;nan;100453.34;5086315;28;20047;-72
2023/12/07 01:18:16;;;;;;;55.80;23.88;;;;;;;0.73;nan;100459.03;5082928;28;20021;-72
2023/12/07 01:20:41;;;;;;;59.47;22.40;;;;;;;0.79;nan;100463.56;5072992;28;20023;-72
2023/12/07 01:23:08;;;;;;;56.70;23.27;;;;;;;0.74;nan;100458.88;5072800;28;20053;-72
2023/12/07 01:25:34;;;;;;;52.80;22.77;;;;;;;0.79;nan;100460.97;5091866;28;20024;-73
2023/12/07 01:27:59;;;;;;;60.38;22.92;;;;;;;0.82;nan;100465.88;5085266;28;20173;-72
2023/12/07 01:30:25;;;;;;;58.42;23.73;;;;;;;0.74;nan;100455.47;5082812;28;20029;-72
2023/12/07 01:32:51;;;;;;;57.33;23.02;;;;;;;0.76;nan;100451.75;5097316;28;20028;-72
2023/12/07 01:35:16;;;;;;;55.67;21.48;;;;;;;0.77;nan;100449.97;5093492;28;20033;-73
2023/12/07 01:37:42;;;;;;;62.60;24.25;;;;;;;0.84;nan;100461.34;5086623;28;20492;-72
2023/12/07 01:40:10;;;;;;;64.93;22.95;;;;;;;0.81;nan;100446.09;5083425;28;20528;-73
2023/12/07 01:42:37;;;;;;;63.33;24.10;;;;;;;0.75;nan;100439.75;5082427;28;20031;-72
2023/12/07 01:45:02;;;;;;;59.65;22.92;;;;;;;0.88;nan;100461.81;5087506;28;20078;-72
2023/12/07 01:47:28;;;;;;;59.47;22.95;;;;;;;0.88;nan;100464.41;5086314;28;20465;-73
2023/12/07 01:49:54;;;;;;;64.88;23.13;;;;;;;0.88;nan;100470.41;5083060;28;20028;-72
2023/12/07 01:52:23;;;;;;;63.15;22.92;;;;;;;0.90;nan;100467.66;5082070;28;20031;-71
2023/12/07 01:54:49;;;;;;;63.22;23.00;;;;;;;0.75;nan;100438.97;5079100;28;20024;-74
2023/12/07 01:57:14;;;;;;;64.15;23.30;;;;;;;0.82;nan;100450.31;5091118;28;20397;-72
2023/12/07 01:59:40;;;;;;;64.45;23.98;;;;;;;0.82;nan;100447.72;5070407;28;20123;-71
2023/12/07 02:02:06;;;;;;;72.72;24.92;;;;;;;0.88;nan;100460.03;5084745;28;20023;-72
2023/12/07 02:04:31;;;;;;;72.53;24.20;;;;;;;0.77;nan;100444.81;5069990;28;20660;-71
2023/12/07 02:07:01;;;;;;;73.90;24.38;;;;;;;0.89;nan;100453.88;5085838;28;20389;-72
2023/12/07 02:09:27;;;;;;;77.60;24.92;;;;;;;0.87;nan;100452.44;5071592;28;20543;-72
2023/12/07 02:11:52;;;;;;;77.68;25.98;;;;;;;0.91;nan;100459.72;5091841;28;20024;-72
2023/12/07 02:14:18;;;;;;;83.93;25.17;;;;;;;0.92;nan;100456.16;5064007;28;20031;-72
2023/12/07 02:16:57;;;;;;;81.00;26.70;;;;;;;0.88;nan;100454.84;5079241;28;20036;-72
2023/12/07 02:19:55;;;;;;;73.13;22.42;;;;;;;0.96;nan;100462.66;5086172;28;20027;-73
2023/12/07 02:22:39;;;;;;;69.18;22.80;;;;;;;0.92;nan;100452.75;5092880;28;20158;-73
2023/12/07 02:25:10;;;;;;;64.28;25.15;;;;;;;0.89;nan;100443.53;5085412;28;20009;-73
2023/12/07 02:27:37;;;;;;;65.88;24.17;;;;;;;0.89;nan;100447.88;5078544;28;20386;-73
2023/12/07 02:30:04;;;;;;;67.95;24.30;;;;;;;0.92;nan;100455.34;5081153;28;20088;-74
2023/12/07 02:32:29;;;;;;;62.45;22.45;;;;;;;1.01;nan;100470.75;5085721;28;20021;-73
2023/12/07 02:34:55;;;;;;;69.90;24.20;;;;;;;0.96;nan;100451.44;5089579;28;20082;-74
2023/12/07 02:37:22;;;;;;;61.20;22.55;;;;;;;0.98;nan;100460.72;5071786;28;20108;-72
2023/12/07 02:39:50;;;;;;;60.85;23.48;;;;;;;0.98;nan;100463.31;5082342;28;20047;-73
2023/12/07 02:42:16;;;;;;;66.28;22.98;;;;;;;1.00;nan;100466.53;5089091;28;20054;-72
2023/12/07 02:44:42;;;;;;;67.72;24.15;;;;;;;0.96;nan;100467.84;5075644;28;20084;-73
2023/12/07 02:47:08;;;;;;;60.33;23.20;;;;;;;0.97;nan;100464.25;5073285;28;20032;-72
2023/12/07 02:49:33;;;;;;;70.43;25.48;;;;;;;1.01;nan;100468.16;5080534;28;20176;-72
2023/12/07 02:51:59;;;;;;;64.38;23.67;;;;;;;1.01;nan;100473.34;5063329;28;20684;-72
2023/12/07 02:54:24;;;;;;;60.60;23.27;;;;;;;0.99;nan;100477.06;5090148;28;20032;-73
2023/12/07 02:56:50;;;;;;;59.53;22.73;;;;;;;1.00;nan;100471.69;5092332;28;20128;-72
2023/12/07 02:59:15;;;;;;;58.35;23.05;;;;;;;1.01;nan;100473.34;5084221;28;20032;-72
2023/12/07 03:01:41;;;;;;;58.83;23.90;;;;;;;1.04;nan;100478.19;5083982;28;20029;-72
2023/12/07 03:04:06;;;;;;;57.00;22.58;;;;;;;1.06;nan;100484.03;5079807;28;20012;-71
2023/12/07 03:06:32;;;;;;;58.45;23.40;;;;;;;1.05;nan;100482.44;5075114;28;20024;-72
2023/12/07 03:08:57;;;;;;;55.45;22.70;;;;;;;1.01;nan;100478.53;5082674;28;20495;-72
2023/12/07 03:11:23;;;;;;;64.38;22.88;;;;;;;0.92;nan;100463.94;5074316;28;20031;-72
2023/12/07 03:13:49;;;;;;;55.00;22.77;;;;;;;1.04;nan;100485.19;5086299;28;20028;-74
2023/12/07 03:16:14;;;;;;;58.92;22.95;;;;;;;0.96;nan;100478.19;5078756;28;20028;-72
2023/12/07 03:18:40;;;;;;;57.60;23.17;;;;;;;1.07;nan;100490.03;5069271;28;20024;-73
2023/12/07 03:21:06;;;;;;;60.90;24.23;;;;;;;0.98;nan;100481.44;5088981;28;20024;-71
2023/12/07 03:23:31;;;;;;;56.75;23.20;;;;;;;1.04;nan;100485.97;5082790;28;20032;-71
2023/12/07 03:25:56;;;;;;;53.03;22.25;;;;;;;1.02;nan;100482.72;5084537;28;20031;-72
2023/12/07 03:28:22;;;;;;;54.83;20.75;;;;;;;1.04;nan;100487.78;5079754;28;20077;-72
2023/12/07 03:30:47;;;;;;;53.38;21.13;;;;;;;1.12;nan;100505.91;5092791;28;20032;-73
2023/12/07 03:33:13;;;;;;;53.97;21.67;;;;;;;1.04;nan;100488.56;5092854;28;20038;-72
2023/12/07 03:35:38;;;;;;;51.25;21.63;;;;;;;1.10;nan;100501.88;5101678;28;20023;-73
2023/12/07 03:38:04;;;;;;;55.03;21.48;;;;;;;1.15;nan;100504.78;5104941;28;20008;-72
2023/12/07 03:40:29;;;;;;;50.50;21.55;;;;;;;0.87;nan;100467.97;5087678;28;20032;-71
2023/12/07 03:42:55;;;;;;;53.20;22.00;;;;;;;1.11;nan;100513.88;5118439;28;20035;-73
2023/12/07 03:45:20;;;;;;;51.85;21.63;;;;;;;1.13;nan;100515.34;5115558;28;20062;-72
2023/12/07 03:47:45;;;;;;;54.55;21.45;;;;;;;1.08;nan;100503.81;5113102;28;20020;-72
2023/12/07 03:50:11;;;;;;;49.25;19.85;;;;;;;1.10;nan;100514.84;5109726;28;20043;-72
2023/12/07 03:52:36;;;;;;;48.08;20.20;;;;;;;1.08;nan;100502.03;5088988;28;20518;-72
2023/12/07 03:55:02;;;;;;;54.25;20.77;;;;;;;1.06;nan;100499.59;5068043;28;20039;-74
2023/12/07 03:57:28;;;;;;;49.67;20.80;;;;;;;1.08;nan;100501.22;5073817;28;20497;-74
2023/12/07 03:59:53;;;;;;;46.33;18.17;;;;;;;1.06;nan;100497.00;5075571;28;20028;-74
2023/12/07 04:02:19;;;;;;;49.88;20.33;;;;;;;1.09;nan;100506.25;5090705;28;20110;-74
2023/12/07 04:04:44;;;;;;;51.13;19.65;;;;;;;0.96;nan;100482.56;5083227;28;20016;-74
2023/12/07 04:07:10;;;;;;;46.65;19.33;;;;;;;1.09;nan;100501.06;5092570;28;20031;-74
2023/12/07 04:09:35;;;;;;;47.83;20.27;;;;;;;1.06;nan;100496.19;5089817;28;20524;-74
2023/12/07 04:12:01;;;;;;;44.50;19.30;;;;;;;1.03;nan;100493.91;5088253;28;20024;-74
2023/12/07 04:14:27;;;;;;;48.75;20.33;;;;;;;1.10;nan;100504.47;5083799;28;20028;-75
2023/12/07 04:16:53;;;;;;;48.10;19.35;;;;;;;1.06;nan;100499.59;5083379;28;20036;-74
2023/12/07 04:19:18;;;;;;;44.33;18.98;;;;;;;1.08;nan;100509.00;5093826;28;20803;-75
2023/12/07 04:21:44;;;;;;;44.35;18.25;;;;;;;1.17;nan;100511.44;5085069;28;20024;-74
2023/12/07 04:24:09;;;;;;;43.35;19.23;;;;;;;1.13;nan;100510.16;5083476;28;20071;-73
2023/12/07 04:26:35;;;;;;;45.20;19.13;;;;;;;1.07;nan;100505.59;5081143;28;20027;-74
2023/12/07 04:29:00;;;;;;;50.72;19.83;;;;;;;1.13;nan;100512.75;5091390;28;20362;-74
2023/12/07 04:31:25;;;;;;;44.97;19.63;;;;;;;1.06;nan;100493.59;5086383;28;20774;-75
2023/12/07 04:33:51;;;;;;;44.05;18.55;;;;;;;1.10;nan;100501.88;5088736;28;20607;-76
2023/12/07 04:36:16;;;;;;;49.65;20.50;;;;;;;1.15;nan;100513.41;5085025;28;20077;-75
2023/12/07 04:38:42;;;;;;;51.90;20.73;;;;;;;1.13;nan;100504.97;5081460;28;20040;-75
2023/12/07 04:41:07;;;;;;;46.13;18.33;;;;;;;1.17;nan;100515.81;5073194;28;20051;-76
2023/12/07 04:43:33;;;;;;;49.17;19.15;;;;;;;1.12;nan;100515.47;5089453;28;20020;-74
2023/12/07 04:45:59;;;;;;;49.08;19.77;;;;;;;0.98;nan;100483.22;5066203;28;20595;-75
2023/12/07 04:48:25;;;;;;;47.47;17.60;;;;;;;1.10;nan;100514.84;5071310;28;20028;-75
2023/12/07 04:50:51;;;;;;;53.60;20.77;;;;;;;0.90;nan;100481.41;5090946;28;20039;-74
2023/12/07 04:53:16;;;;;;;56.67;19.80;;;;;;;1.16;nan;100520.19;5094940;28;20399;-73
2023/12/07 04:55:46;;;;;;;53.70;21.58;;;;;;;1.17;nan;100527.00;5089363;28;20031;-75
2023/12/07 04:58:12;;;;;;;51.65;20.40;;;;;;;1.11;nan;100516.47;5061382;28;20040;-74
2023/12/07 05:00:38;;;;;;;50.10;19.85;;;;;;;1.20;nan;100536.25;5086919;28;20533;-74
2023/12/07 05:03:03;;;;;;;47.08;19.80;;;;;;;1.15;nan;100525.53;5089826;28;20143;-75
2023/12/07 05:05:29;;;;;;;49.85;20.23;;;;;;;1.08;nan;100522.78;5094194;28;20397;-74
2023/12/07 05:07:54;;;;;;;48.80;19.65;;;;;;;1.21;nan;100537.88;5084130;28;20580;-74
2023/12/07 05:10:20;;;;;;;43.03;18.63;;;;;;;1.21;nan;100540.47;5084911;28;20134;-74
2023/12/07 05:12:45;;;;;;;44.47;19.40;;;;;;;1.20;nan;100544.03;5060036;28;20051;-75
2023/12/07 05:15:11;;;;;;;46.80;18.98;;;;;;;1.21;nan;100554.25;5083343;28;20020;-74
2023/12/07 05:17:36;;;;;;;48.45;19.30;;;;;;;1.17;nan;100544.34;5074347;28;20044;-72
2023/12/07 05:20:02;;;;;;;48.75;19.55;;;;;;;1.20;nan;100552.63;5084049;28;20830;-72
2023/12/07 05:22:28;;;;;;;46.80;19.95;;;;;;;1.11;nan;100532.03;5082062;28;20043;-72
2023/12/07 05:24:54;;;;;;;50.53;19.63;;;;;;;1.12;nan;100538.81;5081129;28;20043;-72
2023/12/07 05:27:20;;;;;;;46.28;19.90;;;;;;;1.18;nan;100548.56;5089625;28;20069;-71
2023/12/07 05:29:45;;;;;;;47.35;18.13;;;;;;;1.13;nan;100536.09;5075281;28;20416;-72
2023/12/07 05:32:10;;;;;;;41.95;17.77;;;;;;;1.21;nan;100549.06;5087387;28;20816;-71
2023/12/07 05:34:36;;;;;;;48.58;19.73;;;;;;;1.20;nan;100549.22;5088348;28;20029;-72
2023/12/07 05:37:02;;;;;;;43.95;18.55;;;;;;;1.14;nan;100539.47;5088220;28;20028;-72
2023/12/07 05:39:27;;;;;;;45.70;19.13;;;;;;;1.22;nan;100557.63;5084548;28;20029;-71
2023/12/07 05:41:53;;;;;;;43.53;18.55;;;;;;;1.15;nan;100546.28;5086215;28;20036;-71
2023/12/07 05:44:21;;;;;;;39.42;17.08;;;;;;;1.12;nan;100554.38;5085840;28;20033;-72
2023/12/07 05:46:47;;;;;;;40.60;17.70;;;;;;;1.20;nan;100570.78;5067366;28;20501;-72
2023/12/07 05:49:12;;;;;;;41.05;17.85;;;;;;;1.11;nan;100553.59;5082982;28;20052;-72
2023/12/07 05:51:38;;;;;;;37.92;16.05;;;;;;;1.24;nan;100577.25;5084058;28;20040;-72
2023/12/07 05:54:04;;;;;;;39.05;16.58;;;;;;;1.23;nan;100575.66;5091669;28;20140;-72
2023/12/07 05:56:31;;;;;;;35.92;16.73;;;;;;;1.20;nan;100575.16;5095988;28;20099;-70
2023/12/07 05:58:56;;;;;;;37.35;17.25;;;;;;;1.11;nan;100557.97;5084153;28;20069;-72
2023/12/07 06:01:22;;;;;;;39.60;17.55;;;;;;;1.20;nan;100581.16;5085814;28;20032;-72
2023/12/07 06:03:48;;;;;;;37.33;17.58;;;;;;;1.12;nan;100562.16;5085066;28;20047;-72
2023/12/07 06:06:13;;;;;;;36.22;16.48;;;;;;;1.19;nan;100578.72;5086382;28;20486;-71
2023/12/07 06:08:39;;;;;;;38.83;17.40;;;;;;;1.19;nan;100584.72;5082020;28;20020;-72
2023/12/07 06:11:05;;;;;;;37.78;17.83;;;;;;;1.10;nan;100567.50;5081931;28;20398;-73
2023/12/07 06:13:31;;;;;;;38.95;16.92;;;;;;;1.22;nan;100583.56;5081365;28;20107;-73
2023/12/07 06:15:57;;;;;;;38.45;17.27;;;;;;;1.13;nan;100577.59;5089230;28;20024;-73
2023/12/07 06:18:22;;;;;;;38.33;16.95;;;;;;;1.12;nan;100569.94;5087276;28;20488;-72
2023/12/07 06:20:48;;;;;;;37.53;16.45;;;;;;;1.22;nan;100584.41;5068333;28;20055;-72
2023/12/07 06:23:13;;;;;;;36.67;16.17;;;;;;;1.23;nan;100588.63;5077627;28;20119;-71
2023/12/07 06:25:39;;;;;;;38.58;16.60;;;;;;;1.23;nan;100593.81;5064590;28;20027;-72
2023/12/07 06:28:05;;;;;;;42.10;18.45;;;;;;;1.23;nan;100598.19;5080442;28;20038;-72
2023/12/07 06:30:30;;;;;;;44.70;18.52;;;;;;;1.21;nan;100594.94;5080556;28;20781;-72
2023/12/07 06:32:56;;;;;;;45.75;21.40;;;;;;;1.21;nan;100587.16;5086903;28;20058;-72
2023/12/07 06:35:21;;;;;;;47.17;21.92;;;;;;;1.10;nan;100569.28;5084140;28;20044;-72
2023/12/07 06:37:47;;;;;;;47.08;20.10;;;;;;;1.18;nan;100592.66;5088004;28;20024;-71
2023/12/07 06:40:12;;;;;;;44.88;20.23;;;;;;;1.25;nan;100594.47;5100462;28;20012;-71
2023/12/07 06:42:38;;;;;;;46.80;20.55;;;;;;;1.29;nan;100602.72;5109567;28;20044;-72
2023/12/07 06:45:05;;;;;;;49.60;21.35;;;;;;;1.31;nan;100611.16;5111021;28;20015;-71
2023/12/07 06:47:30;;;;;;;47.40;20.75;;;;;;;1.22;nan;100596.53;5101426;28;20024;-71
2023/12/07 06:49:56;;;;;;;49.75;21.00;;;;;;;1.23;nan;100593.00;5104279;28;20077;-72
2023/12/07 06:52:21;;;;;;;44.55;19.58;;;;;;;1.21;nan;100600.13;5088364;28;20028;-70
2023/12/07 06:54:47;;;;;;;48.92;20.48;;;;;;;1.27;nan;100596.91;5089394;28;20439;-72
2023/12/07 06:57:12;;;;;;;47.25;20.48;;;;;;;1.28;nan;100606.31;5088876;28;20028;-73
2023/12/07 06:59:38;;;;;;;45.78;20.05;;;;;;;1.31;nan;100605.97;5064317;28;20066;-72
2023/12/07 07:02:04;;;;;;;48.65;19.58;;;;;;;1.28;nan;100608.91;5085159;28;20059;-72
2023/12/07 07:04:32;;;;;;;45.53;19.05;;;;;;;1.34;nan;100612.63;5079877;28;20016;-70
2023/12/07 07:06:57;;;;;;;44.72;20.02;;;;;;;1.31;nan;100624.13;5065367;28;20161;-72
2023/12/07 07:09:23;;;;;;;42.53;19.85;;;;;;;1.20;nan;100598.50;5084602;28;20822;-76
2023/12/07 07:11:48;;;;;;;44.85;18.83;;;;;;;1.34;nan;100623.00;5086404;28;20361;-75
2023/12/07 07:14:14;;;;;;;38.35;17.38;;;;;;;1.29;nan;100613.09;5095036;28;20024;-76
2023/12/07 07:16:39;;;;;;;39.70;17.25;;;;;;;1.24;nan;100607.59;5098295;28;20481;-76
2023/12/07 07:19:05;;;;;;;40.75;17.50;;;;;;;1.26;nan;100614.22;5090526;28;20077;-75
2023/12/07 07:21:31;;;;;;;39.15;18.40;;;;;;;1.38;nan;100627.72;5085902;28;20035;-76
2023/12/07 07:23:57;;;;;;;36.67;17.45;;;;;;;1.29;nan;100615.69;5075777;28;20031;-75
2023/12/07 07:26:24;;;;;;;43.03;19.48;;;;;;;1.23;nan;100605.97;5079216;28;20024;-75
2023/12/07 07:28:51;;;;;;;38.72;17.30;;;;;;;1.27;nan;100615.06;5080836;28;20534;-75
2023/12/07 07:31:17;;;;;;;40.85;18.00;;;;;;;1.20;nan;100601.91;5091196;28;20089;-71
2023/12/07 07:33:43;;;;;;;39.17;17.98;;;;;;;1.26;nan;100608.25;5081091;28;20030;-70
2023/12/07 07:36:09;;;;;;;41.22;18.40;;;;;;;1.31;nan;100616.34;5073812;28;20031;-71
2023/12/07 07:38:34;;;;;;;36.22;18.55;;;;;;;1.21;nan;100592.34;5067730;28;20081;-72
2023/12/07 07:41:00;;;;;;;36.97;18.05;;;;;;;1.34;nan;100615.22;5074991;28;20032;-71
2023/12/07 07:43:29;;;;;;;37.88;16.80;;;;;;;1.32;nan;100612.81;5071972;28;20115;-70
2023/12/07 07:45:54;;;;;;;34.75;16.83;;;;;;;1.24;nan;100597.19;5071029;28;20016;-71
2023/12/07 07:48:19;;;;;;;34.47;15.88;;;;;;;1.17;nan;100593.63;5085302;28;20038;-71
2023/12/07 07:50:45;;;;;;;39.08;17.38;;;;;;;1.22;nan;100606.94;5088077;28;20048;-72
2023/12/07 07:53:13;;;;;;;42.47;17.50;;;;;;;1.33;nan;100631.78;5073844;28;20040;-69
2023/12/07 07:55:39;;;;;;;45.13;18.38;;;;;;;1.34;nan;100635.97;5089100;28;20035;-71
2023/12/07 07:58:07;;;;;;;42.78;17.60;;;;;;;1.18;nan;100611.63;5082886;28;20028;-70
2023/12/07 08:00:34;;;;;;;42.22;17.58;;;;;;;1.20;nan;100611.47;5084417;28;20048;-71
2023/12/07 08:03:00;;;;;;;36.08;15.35;;;;;;;1.32;nan;100630.13;5058926;28;20043;-70
2023/12/07 08:05:25;;;;;;;44.80;17.73;;;;;;;1.32;nan;100636.16;5067657;28;20650;-71
2023/12/07 08:07:51;;;;;;;39.35;16.85;;;;;;;1.34;nan;100635.97;5084855;28;20076;-72
2023/12/07 08:10:17;;;;;;;39.65;16.40;;;;;;;1.22;nan;100618.13;5089751;28;20105;-70
2023/12/07 08:12:42;;;;;;;42.05;16.83;;;;;;;1.29;nan;100631.25;5090432;28;20038;-72
2023/12/07 08:15:15;;;;;;;42.70;18.65;;;;;;;1.26;nan;100626.41;5098325;28;20024;-72
2023/12/07 08:17:44;;;;;;;42.72;17.58;;;;;;;1.38;nan;100643.28;5076458;28;20050;-73
2023/12/07 08:20:15;;;;;;;42.97;17.53;;;;;;;1.27;nan;100622.84;5079879;28;20027;-71
2023/12/07 08:22:41;;;;;;;45.42;18.60;;;;;;;1.39;nan;100638.91;5085188;28;20631;-72
2023/12/07 08:25:09;;;;;;;46.35;18.65;;;;;;;1.39;nan;100636.31;5086020;28;20024;-72
2023/12/07 08:27:36;;;;;;;41.33;17.20;;;;;;;1.40;nan;100638.75;5097173;28;20601;-75
2023/12/07 08:30:02;;;;;;;44.28;18.83;;;;;;;1.43;nan;100640.22;5077443;28;20036;-76
2023/12/07 08:32:27;;;;;;;42.70;16.67;;;;;;;1.40;nan;100630.16;5087728;28;20470;-75
2023/12/07 08:34:54;;;;;;;41.80;17.77;;;;;;;1.43;nan;100645.41;5089959;28;20032;-75
2023/12/07 08:37:19;;;;;;;40.38;17.10;;;;;;;1.39;nan;100639.75;5089475;28;20039;-74
2023/12/07 08:39:45;;;;;;;37.65;16.27;;;;;;;1.32;nan;100632.72;5086205;28;20023;-74
2023/12/07 08:42:11;;;;;;;37.90;16.63;;;;;;;1.46;nan;100648.50;5087816;28;20032;-75
2023/12/07 08:44:37;;;;;;;36.78;15.73;;;;;;;1.37;nan;100636.50;5079141;28;20028;-75
2023/12/07 08:47:03;;;;;;;35.80;15.75;;;;;;;1.47;nan;100650.13;5083120;28;20027;-74
2023/12/07 08:49:28;;;;;;;37.50;16.70;;;;;;;1.32;nan;100632.72;5071728;28;20028;-75
2023/12/07 08:51:54;;;;;;;37.67;16.48;;;;;;;1.33;nan;100624.78;5076235;28;20375;-75
2023/12/07 08:54:19;;;;;;;42.15;17.65;;;;;;;1.52;nan;100662.63;5086752;28;20093;-75
2023/12/07 08:56:45;;;;;;;36.45;17.02;;;;;;;1.29;nan;100620.88;5085855;28;20099;-75
2023/12/07 08:59:11;;;;;;;32.13;15.00;;;;;;;1.51;nan;100663.59;5073198;28;20113;-75
2023/12/07 09:01:36;;;;;;;39.40;16.00;;;;;;;1.38;nan;100635.50;5082007;28;20568;-75
2023/12/07 09:04:02;;;;;;;35.75;15.85;;;;;;;1.48;nan;100643.97;5083009;28;20468;-74
2023/12/07 09:06:27;;;;;;;36.67;16.73;;;;;;;1.58;nan;100666.34;5087325;28;20019;-75
2023/12/07 09:08:53;;;;;;;35.03;15.65;;;;;;;1.56;nan;100660.53;5085280;28;20023;-75
2023/12/07 09:11:18;;;;;;;35.40;15.88;;;;;;;1.53;nan;100650.44;5087129;28;20513;-75
2023/12/07 09:13:43;;;;;;;33.42;15.98;;;;;;;1.57;nan;100647.38;5066118;28;20028;-74
2023/12/07 09:16:09;;;;;;;30.67;13.98;;;;;;;1.62;nan;100652.91;5093516;28;20023;-75
2023/12/07 09:18:35;;;;;;;34.55;15.02;;;;;;;1.55;nan;100641.53;5073384;28;20036;-75
2023/12/07 09:21:01;;;;;;;29.42;14.30;;;;;;;1.65;nan;100651.75;5085828;28;20466;-75
2023/12/07 09:23:27;;;;;;;30.90;15.05;;;;;;;1.62;nan;100641.72;5064785;28;20031;-74
2023/12/07 09:25:52;;;;;;;35.33;14.40;;;;;;;1.55;nan;100625.97;5084801;28;20122;-74
2023/12/07 09:28:17;;;;;;;32.03;14.18;;;;;;;1.66;nan;100637.84;5083554;28;20024;-74
2023/12/07 09:30:43;;;;;;;34.83;16.08;;;;;;;1.63;nan;100628.59;5086082;28;20599;-74
2023/12/07 09:33:09;;;;;;;31.20;14.45;;;;;;;1.60;nan;100631.47;5082819;28;20688;-73
2023/12/07 09:35:35;;;;;;;37.42;16.98;;;;;;;1.70;nan;100639.16;5085369;28;20028;-74
2023/12/07 09:38:01;;;;;;;36.95;15.18;;;;;;;1.69;nan;100638.31;5090782;28;20062;-74
2023/12/07 09:40:27;;;;;;;32.97;15.90;;;;;;;1.63;nan;100632.97;5088558;28;20390;-74
2023/12/07 09:42:53;;;;;;;30.55;14.77;;;;;;;1.76;nan;100646.28;5084796;28;20024;-74
2023/12/07 09:45:20;;;;;;;34.83;15.57;;;;;;;1.47;nan;100595.63;5100318;28;20024;-74
2023/12/07 09:47:51;;;;;;;30.00;15.00;;;;;;;1.72;nan;100639.78;5107151;28;20038;-74
2023/12/07 09:50:18;;;;;;;30.55;14.70;;;;;;;1.70;nan;100623.56;5109706;28;20127;-75
2023/12/07 09:52:43;;;;;;;29.92;14.52;;;;;;;1.63;nan;100612.22;5111233;28;20030;-75
2023/12/07 09:55:09;;;;;;;28.33;14.23;;;;;;;1.75;nan;100634.28;5105345;28;20020;-73
2023/12/07 09:57:37;;;;;;;29.48;14.00;;;;;;;1.72;nan;100629.38;5106723;28;20514;-74
2023/12/07 10:00:04;;;;;;;29.55;13.43;;;;;;;1.70;nan;100623.56;5085322;28;20064;-74
2023/12/07 10:02:30;;;;;;;35.40;15.95;;;;;;;1.71;nan;100630.38;5063235;28;20488;-74
2023/12/07 10:05:16;;;;;;;36.47;16.05;;;;;;;1.65;nan;100613.66;5088838;28;20031;-74
2023/12/07 10:07:48;;;;;;;37.40;16.77;;;;;;;1.76;nan;100629.88;5081486;28;20020;-74
2023/12/07 10:10:14;;;;;;;39.90;16.48;;;;;;;1.79;nan;100630.38;5087389;28;20051;-75
2023/12/07 10:12:57;;;;;;;38.67;16.77;;;;;;;1.78;nan;100627.94;5090780;28;20390;-76
2023/12/07 10:15:23;;;;;;;38.05;16.40;;;;;;;1.69;nan;100612.34;5086319;28;20023;-74
2023/12/07 10:17:57;;;;;;;38.47;16.92;;;;;;;1.79;nan;100632.16;5083968;28;20054;-74
2023/12/07 10:20:27;;;;;;;36.42;17.00;;;;;;;1.48;nan;100584.28;5062666;28;20035;-75
2023/12/07 10:23:05;;;;;;;37.15;16.15;;;;;;;1.75;nan;100628.25;5083465;28;20565;-75
2023/12/07 10:25:32;;;;;;;37.47;16.73;;;;;;;1.64;nan;100606.84;5083767;28;20158;-75
2023/12/07 10:27:57;;;;;;;39.38;16.77;;;;;;;1.64;nan;100621.59;5082006;28;20024;-74
2023/12/07 10:30:26;;;;;;;37.63;16.42;;;;;;;1.71;nan;100622.59;5081905;28;20032;-75
2023/12/07 10:32:52;;;;;;;37.45;18.23;;;;;;;1.58;nan;100601.47;5073503;28;20024;-75
2023/12/07 10:35:19;;;;;;;38.53;18.75;;;;;;;1.72;nan;100621.59;5084730;28;20056;-75
2023/12/07 10:37:45;;;;;;;43.58;18.35;;;;;;;1.63;nan;100605.22;5062462;28;20035;-75
2023/12/07 10:40:13;;;;;;;42.63;20.00;;;;;;;1.57;nan;100594.66;5070519;28;20172;-75
2023/12/07 10:42:41;;;;;;;47.50;20.08;;;;;;;1.68;nan;100605.56;5063884;28;20017;-74
2023/12/07 10:45:08;;;;;;;47.47;21.30;;;;;;;1.74;nan;100613.66;5086751;28;20018;-75
2023/12/07 10:47:38;;;;;;;49.05;21.17;;;;;;;1.72;nan;100608.63;5073059;28;20715;-74
2023/12/07 10:50:10;;;;;;;43.97;20.40;;;;;;;1.75;nan;100610.91;5081437;28;20498;-74
2023/12/07 10:52:39;;;;;;;49.08;22.13;;;;;;;1.56;nan;100582.69;5084116;28;20024;-75
2023/12/07 10:55:13;;;;;;;48.30;21.25;;;;;;;1.82;nan;100613.66;5083395;28;20024;-74
2023/12/07 10:57:39;;;;;;;55.65;23.00;;;;;;;1.78;nan;100602.78;5086459;28;20078;-75
2023/12/07 11:00:07;;;;;;;48.28;21.85;;;;;;;1.83;nan;100621.28;5068201;28;20371;-74
2023/12/07 11:02:34;;;;;;;53.20;22.23;;;;;;;1.85;nan;100608.97;5070618;28;20139;-73
2023/12/07 11:05:00;;;;;;;49.42;22.08;;;;;;;1.84;nan;100602.13;5064386;28;20095;-75
2023/12/07 11:07:37;;;;;;;45.90;20.40;;;;;;;1.87;nan;100594.03;5068436;28;20052;-74
2023/12/07 11:10:12;;;;;;;47.58;21.13;;;;;;;1.85;nan;100593.38;5062431;28;20406;-75
2023/12/07 11:12:48;;;;;;;45.65;20.90;;;;;;;1.89;nan;100593.84;5085645;28;20016;-75
2023/12/07 11:15:15;;;;;;;46.42;20.13;;;;;;;1.95;nan;100600.19;5069953;28;20089;-75
2023/12/07 11:17:50;;;;;;;47.15;20.75;;;;;;;1.85;nan;100577.00;5083065;28;20046;-74
2023/12/07 11:20:20;;;;;;;46.10;20.70;;;;;;;2.01;nan;100602.97;5086692;28;20039;-74
2023/12/07 11:22:48;;;;;;;40.50;18.55;;;;;;;1.99;nan;100598.88;5079808;28;20538;-73
2023/12/07 11:25:14;;;;;;;42.28;20.33;;;;;;;1.97;nan;100587.88;5085077;28;20039;-74
2023/12/07 11:27:40;;;;;;;49.08;21.05;;;;;;;2.06;nan;100590.28;5069350;28;20024;-74
2023/12/07 11:30:07;;;;;;;43.45;19.67;;;;;;;2.06;nan;100592.03;5080065;28;20051;-73